BAW780 ENGM-EGLL
Flight info
| Callsign | BAW780 |
|---|---|
| Flight time | 1h 53m |
| Altitude | 36000 |
| Route | VIPPA DCT LINVI L39 GOLUM DCT UPGAS DCT TIPAN DCT WECOW DCT BINBO DCT AKOKO N866 BUKUT P7 BARMI |
| Aircraft | A20N/M-SDE2E3FGHIRWXY/LB1 |
Departure
| Time | 2026-05-07 13:30 |
|---|---|
| Airport | Oslo-Gardermoen International Airport (ENGM) |
Arrival
| Time | 2026-05-07 15:23 |
|---|---|
| Airport | London Heathrow Airport (EGLL) |
| Time | Latitude | Longitude | Altitude | Speed | Heading |
|---|---|---|---|---|---|
| 2026-05-07 13:03 | 60.19460 | 11.10243 | 682 ft | 0 kts | 194° |
| 2026-05-07 13:18 | 60.19461 | 11.10243 | 682 ft | 1 kts | 194° |
| 2026-05-07 13:18 | 60.19485 | 11.10256 | 682 ft | 4 kts | 194° |
| 2026-05-07 13:18 | 60.19506 | 11.10268 | 679 ft | 4 kts | 204° |
| 2026-05-07 13:19 | 60.19528 | 11.10296 | 679 ft | 4 kts | 231° |
| 2026-05-07 13:19 | 60.19540 | 11.10341 | 679 ft | 4 kts | 262° |
| 2026-05-07 13:19 | 60.19540 | 11.10395 | 678 ft | 4 kts | 281° |
| 2026-05-07 13:19 | 60.19537 | 11.10426 | 679 ft | 0 kts | 283° |
| 2026-05-07 13:22 | 60.19537 | 11.10425 | 679 ft | 0 kts | 283° |
| 2026-05-07 13:23 | 60.19542 | 11.10402 | 681 ft | 4 kts | 302° |
| 2026-05-07 13:23 | 60.19578 | 11.10383 | 681 ft | 8 kts | 22° |
| 2026-05-07 13:23 | 60.19645 | 11.10429 | 683 ft | 13 kts | 17° |
| 2026-05-07 13:23 | 60.19743 | 11.10486 | 683 ft | 17 kts | 16° |
| 2026-05-07 13:24 | 60.19868 | 11.10558 | 680 ft | 20 kts | 16° |
| 2026-05-07 13:24 | 60.19948 | 11.10712 | 682 ft | 17 kts | 105° |
| 2026-05-07 13:24 | 60.19916 | 11.10935 | 681 ft | 16 kts | 106° |
| 2026-05-07 13:24 | 60.19885 | 11.11151 | 681 ft | 17 kts | 105° |
| 2026-05-07 13:25 | 60.19849 | 11.11395 | 683 ft | 20 kts | 105° |
| 2026-05-07 13:25 | 60.19919 | 11.11564 | 682 ft | 19 kts | 14° |
| 2026-05-07 13:25 | 60.20048 | 11.11638 | 683 ft | 19 kts | 16° |
| 2026-05-07 13:25 | 60.20166 | 11.11722 | 684 ft | 17 kts | 47° |
| 2026-05-07 13:26 | 60.20157 | 11.11933 | 686 ft | 14 kts | 105° |
| 2026-05-07 13:26 | 60.20146 | 11.12006 | 684 ft | 0 kts | 105° |
| 2026-05-07 13:28 | 60.20144 | 11.12023 | 685 ft | 4 kts | 106° |
| 2026-05-07 13:28 | 60.20130 | 11.12106 | 685 ft | 10 kts | 112° |
| 2026-05-07 13:29 | 60.20064 | 11.12202 | 681 ft | 15 kts | 176° |
| 2026-05-07 13:29 | 60.20019 | 11.12186 | 681 ft | 0 kts | 196° |
| 2026-05-07 13:29 | 60.20019 | 11.12185 | 681 ft | 1 kts | 196° |
| 2026-05-07 13:29 | 60.19847 | 11.12082 | 683 ft | 58 kts | 197° |
| 2026-05-07 13:30 | 60.19242 | 11.11734 | 682 ft | 123 kts | 196° |
| 2026-05-07 13:30 | 60.18241 | 11.11170 | 828 ft | 163 kts | 196° |
| 2026-05-07 13:30 | 60.17102 | 11.10501 | 1321 ft | 181 kts | 197° |
| 2026-05-07 13:30 | 60.15860 | 11.09778 | 2127 ft | 192 kts | 196° |
| 2026-05-07 13:31 | 60.14475 | 11.08990 | 2564 ft | 219 kts | 195° |
| 2026-05-07 13:31 | 60.12935 | 11.08312 | 3247 ft | 233 kts | 188° |
| 2026-05-07 13:31 | 60.11263 | 11.07895 | 3850 ft | 250 kts | 186° |
| 2026-05-07 13:31 | 60.09500 | 11.07522 | 4579 ft | 258 kts | 186° |
| 2026-05-07 13:32 | 60.07701 | 11.07148 | 5408 ft | 262 kts | 186° |
| 2026-05-07 13:32 | 60.05882 | 11.06615 | 6269 ft | 266 kts | 193° |
| 2026-05-07 13:32 | 60.04114 | 11.05496 | 7122 ft | 268 kts | 203° |
| 2026-05-07 13:32 | 60.02454 | 11.03769 | 7996 ft | 270 kts | 211° |
| 2026-05-07 13:33 | 60.00840 | 11.01802 | 8918 ft | 273 kts | 214° |
| 2026-05-07 13:33 | 59.99249 | 10.99675 | 9850 ft | 276 kts | 216° |
| 2026-05-07 13:33 | 59.97666 | 10.97422 | 10550 ft | 287 kts | 218° |
| 2026-05-07 13:33 | 59.96022 | 10.95005 | 10922 ft | 308 kts | 218° |
| 2026-05-07 13:34 | 59.94228 | 10.92344 | 11449 ft | 324 kts | 218° |
| 2026-05-07 13:34 | 59.90572 | 10.86952 | 13149 ft | 333 kts | 218° |
| 2026-05-07 13:34 | 59.88697 | 10.84207 | 14029 ft | 336 kts | 218° |
| 2026-05-07 13:35 | 59.86798 | 10.81443 | 14806 ft | 339 kts | 218° |
| 2026-05-07 13:35 | 59.84881 | 10.78664 | 15584 ft | 342 kts | 218° |
| 2026-05-07 13:35 | 59.82952 | 10.75872 | 16330 ft | 345 kts | 219° |
| 2026-05-07 13:35 | 59.81003 | 10.73052 | 17074 ft | 348 kts | 219° |
| 2026-05-07 13:36 | 59.79038 | 10.70211 | 17825 ft | 351 kts | 219° |
| 2026-05-07 13:36 | 59.77060 | 10.67352 | 18533 ft | 353 kts | 219° |
| 2026-05-07 13:36 | 59.75055 | 10.64458 | 19147 ft | 357 kts | 220° |
| 2026-05-07 13:36 | 59.73060 | 10.61587 | 19724 ft | 361 kts | 220° |
| 2026-05-07 13:37 | 59.71014 | 10.58649 | 20343 ft | 365 kts | 220° |
| 2026-05-07 13:37 | 59.68953 | 10.55693 | 20953 ft | 368 kts | 220° |
| 2026-05-07 13:37 | 59.66867 | 10.52704 | 21550 ft | 371 kts | 220° |
| 2026-05-07 13:37 | 59.64764 | 10.49698 | 22139 ft | 374 kts | 220° |
| 2026-05-07 13:38 | 59.62638 | 10.46664 | 22701 ft | 378 kts | 220° |
| 2026-05-07 13:38 | 59.60504 | 10.43608 | 23273 ft | 381 kts | 220° |
| 2026-05-07 13:38 | 59.58346 | 10.40524 | 23791 ft | 383 kts | 220° |
| 2026-05-07 13:38 | 59.56173 | 10.37440 | 24195 ft | 387 kts | 220° |
| 2026-05-07 13:39 | 59.54005 | 10.34374 | 24642 ft | 389 kts | 220° |
| 2026-05-07 13:39 | 59.51800 | 10.31258 | 25082 ft | 391 kts | 221° |
| 2026-05-07 13:39 | 59.49552 | 10.28085 | 25511 ft | 393 kts | 221° |
| 2026-05-07 13:39 | 59.47323 | 10.24937 | 25886 ft | 396 kts | 220° |
| 2026-05-07 13:40 | 59.45099 | 10.21803 | 26223 ft | 400 kts | 220° |
| 2026-05-07 13:40 | 59.42829 | 10.18609 | 26668 ft | 402 kts | 220° |
| 2026-05-07 13:40 | 59.40550 | 10.15412 | 27088 ft | 403 kts | 220° |
| 2026-05-07 13:40 | 59.38263 | 10.12208 | 27482 ft | 406 kts | 220° |
| 2026-05-07 13:41 | 59.35959 | 10.08985 | 27862 ft | 408 kts | 220° |
| 2026-05-07 13:41 | 59.33640 | 10.05745 | 28217 ft | 411 kts | 220° |
| 2026-05-07 13:41 | 59.31305 | 10.02487 | 28602 ft | 412 kts | 221° |
| 2026-05-07 13:41 | 59.28958 | 9.99218 | 28975 ft | 415 kts | 221° |
| 2026-05-07 13:42 | 59.26597 | 9.95936 | 29311 ft | 417 kts | 220° |
| 2026-05-07 13:42 | 59.24225 | 9.92646 | 29657 ft | 419 kts | 221° |
| 2026-05-07 13:42 | 59.21838 | 9.89340 | 29961 ft | 421 kts | 220° |
| 2026-05-07 13:42 | 59.19441 | 9.86026 | 30320 ft | 422 kts | 220° |
| 2026-05-07 13:43 | 59.17044 | 9.82721 | 30695 ft | 422 kts | 220° |
| 2026-05-07 13:43 | 59.14680 | 9.79466 | 31067 ft | 421 kts | 220° |
| 2026-05-07 13:43 | 59.12282 | 9.76169 | 31397 ft | 421 kts | 220° |
| 2026-05-07 13:43 | 59.09893 | 9.72889 | 31753 ft | 421 kts | 220° |
| 2026-05-07 13:44 | 59.07495 | 9.69601 | 32097 ft | 420 kts | 220° |
| 2026-05-07 13:44 | 59.05108 | 9.66331 | 32413 ft | 420 kts | 220° |
| 2026-05-07 13:44 | 59.02709 | 9.63052 | 32738 ft | 420 kts | 220° |
| 2026-05-07 13:44 | 59.00321 | 9.59790 | 33060 ft | 420 kts | 220° |
| 2026-05-07 13:45 | 58.97931 | 9.56534 | 33366 ft | 419 kts | 220° |
| 2026-05-07 13:45 | 58.95540 | 9.53280 | 33580 ft | 420 kts | 220° |
| 2026-05-07 13:45 | 58.93172 | 9.50062 | 33775 ft | 422 kts | 220° |
| 2026-05-07 13:45 | 58.90757 | 9.46787 | 34041 ft | 422 kts | 220° |
| 2026-05-07 13:46 | 58.88347 | 9.43528 | 34309 ft | 422 kts | 219° |
| 2026-05-07 13:46 | 58.85935 | 9.40271 | 34561 ft | 421 kts | 219° |
| 2026-05-07 13:46 | 58.83532 | 9.37033 | 34773 ft | 421 kts | 219° |
| 2026-05-07 13:46 | 58.81132 | 9.33802 | 34991 ft | 421 kts | 219° |
| 2026-05-07 13:47 | 58.78728 | 9.30573 | 35221 ft | 421 kts | 219° |
| 2026-05-07 13:47 | 58.76358 | 9.27395 | 35411 ft | 421 kts | 219° |
| 2026-05-07 13:47 | 58.73954 | 9.24175 | 35619 ft | 420 kts | 219° |
| 2026-05-07 13:47 | 58.71551 | 9.20962 | 35819 ft | 420 kts | 219° |
| 2026-05-07 13:48 | 58.69148 | 9.17754 | 35966 ft | 421 kts | 218° |
| 2026-05-07 13:48 | 58.66731 | 9.14533 | 36086 ft | 423 kts | 218° |
| 2026-05-07 13:48 | 58.64305 | 9.11306 | 36120 ft | 425 kts | 218° |
| 2026-05-07 13:49 | 58.59446 | 9.04865 | 36121 ft | 423 kts | 218° |
| 2026-05-07 13:49 | 58.54603 | 8.98468 | 36113 ft | 423 kts | 218° |
| 2026-05-07 13:50 | 58.49757 | 8.92088 | 36118 ft | 423 kts | 218° |
| 2026-05-07 13:50 | 58.44915 | 8.85735 | 36117 ft | 420 kts | 218° |
| 2026-05-07 13:51 | 58.40111 | 8.79453 | 36116 ft | 417 kts | 218° |
| 2026-05-07 13:51 | 58.35321 | 8.73205 | 36122 ft | 417 kts | 218° |
| 2026-05-07 13:52 | 58.30562 | 8.67020 | 36115 ft | 417 kts | 218° |
| 2026-05-07 13:52 | 58.25771 | 8.60815 | 36121 ft | 417 kts | 218° |
| 2026-05-07 13:53 | 58.20977 | 8.54629 | 36120 ft | 417 kts | 218° |
| 2026-05-07 13:53 | 58.16169 | 8.48445 | 36120 ft | 418 kts | 217° |
| 2026-05-07 13:54 | 58.11347 | 8.42262 | 36125 ft | 419 kts | 217° |
| 2026-05-07 13:54 | 58.06542 | 8.36125 | 36126 ft | 419 kts | 217° |
| 2026-05-07 13:55 | 58.01715 | 8.29979 | 36126 ft | 419 kts | 217° |
| 2026-05-07 13:55 | 57.96881 | 8.23843 | 36126 ft | 419 kts | 217° |
| 2026-05-07 13:56 | 57.92849 | 8.18740 | 36109 ft | 419 kts | 216° |
| 2026-05-07 13:56 | 57.88007 | 8.12631 | 36125 ft | 420 kts | 216° |
| 2026-05-07 13:57 | 57.83142 | 8.06515 | 36125 ft | 420 kts | 216° |
| 2026-05-07 13:57 | 57.78275 | 8.00416 | 36124 ft | 420 kts | 216° |
| 2026-05-07 13:58 | 57.73408 | 7.94336 | 36122 ft | 420 kts | 216° |
| 2026-05-07 13:58 | 57.68539 | 7.88275 | 36124 ft | 420 kts | 216° |
| 2026-05-07 13:59 | 57.63693 | 7.82260 | 36120 ft | 421 kts | 216° |
| 2026-05-07 13:59 | 57.58802 | 7.76210 | 36123 ft | 422 kts | 216° |
| 2026-05-07 14:00 | 57.53909 | 7.70179 | 36120 ft | 422 kts | 216° |
| 2026-05-07 14:00 | 57.49013 | 7.64163 | 36127 ft | 421 kts | 216° |
| 2026-05-07 14:01 | 57.44112 | 7.58159 | 36118 ft | 422 kts | 216° |
| 2026-05-07 14:01 | 57.39209 | 7.52173 | 36118 ft | 422 kts | 215° |
| 2026-05-07 14:02 | 57.34324 | 7.46229 | 36119 ft | 423 kts | 215° |
| 2026-05-07 14:02 | 57.29401 | 7.40258 | 36116 ft | 423 kts | 215° |
| 2026-05-07 14:03 | 57.24478 | 7.34306 | 36114 ft | 423 kts | 215° |
| 2026-05-07 14:03 | 57.19550 | 7.28367 | 36117 ft | 423 kts | 215° |
| 2026-05-07 14:04 | 57.14611 | 7.22435 | 36111 ft | 423 kts | 214° |
| 2026-05-07 14:04 | 57.09675 | 7.16524 | 36116 ft | 423 kts | 214° |
| 2026-05-07 14:05 | 57.04735 | 7.10629 | 36117 ft | 423 kts | 214° |
| 2026-05-07 14:05 | 56.99791 | 7.04749 | 36119 ft | 423 kts | 214° |
| 2026-05-07 14:06 | 56.94843 | 6.98881 | 36112 ft | 423 kts | 214° |
| 2026-05-07 14:06 | 56.89931 | 6.93074 | 36110 ft | 423 kts | 214° |
| 2026-05-07 14:07 | 56.84975 | 6.87235 | 36115 ft | 423 kts | 214° |
| 2026-05-07 14:07 | 56.80011 | 6.81405 | 36116 ft | 423 kts | 214° |
| 2026-05-07 14:08 | 56.75054 | 6.75602 | 36120 ft | 423 kts | 214° |
| 2026-05-07 14:08 | 56.70117 | 6.69840 | 36119 ft | 424 kts | 213° |
| 2026-05-07 14:09 | 56.65151 | 6.64062 | 36109 ft | 424 kts | 213° |
| 2026-05-07 14:09 | 56.60172 | 6.58289 | 36119 ft | 424 kts | 213° |
| 2026-05-07 14:10 | 56.55189 | 6.52528 | 36129 ft | 425 kts | 213° |
| 2026-05-07 14:10 | 56.50199 | 6.46779 | 36117 ft | 425 kts | 213° |
| 2026-05-07 14:11 | 56.45209 | 6.41046 | 36119 ft | 425 kts | 213° |
| 2026-05-07 14:11 | 56.40219 | 6.35333 | 36122 ft | 425 kts | 213° |
| 2026-05-07 14:12 | 56.35225 | 6.29632 | 36116 ft | 425 kts | 213° |
| 2026-05-07 14:12 | 56.30218 | 6.23934 | 36117 ft | 425 kts | 212° |
| 2026-05-07 14:13 | 56.25245 | 6.18293 | 36125 ft | 425 kts | 212° |
| 2026-05-07 14:13 | 56.20210 | 6.12600 | 36127 ft | 425 kts | 212° |
| 2026-05-07 14:14 | 56.15226 | 6.06983 | 36113 ft | 425 kts | 212° |
| 2026-05-07 14:14 | 56.10218 | 6.01354 | 36121 ft | 425 kts | 212° |
| 2026-05-07 14:15 | 56.05195 | 5.95727 | 36121 ft | 425 kts | 212° |
| 2026-05-07 14:15 | 56.00164 | 5.90109 | 36130 ft | 425 kts | 212° |
| 2026-05-07 14:16 | 55.95134 | 5.84509 | 36126 ft | 425 kts | 212° |
| 2026-05-07 14:16 | 55.90139 | 5.78965 | 36123 ft | 425 kts | 212° |
| 2026-05-07 14:17 | 55.85105 | 5.73395 | 36130 ft | 425 kts | 212° |
| 2026-05-07 14:17 | 55.80070 | 5.67841 | 36120 ft | 425 kts | 212° |
| 2026-05-07 14:18 | 55.75028 | 5.62297 | 36126 ft | 425 kts | 212° |
| 2026-05-07 14:18 | 55.70021 | 5.56809 | 36127 ft | 425 kts | 212° |
| 2026-05-07 14:19 | 55.64984 | 5.51303 | 36119 ft | 424 kts | 211° |
| 2026-05-07 14:19 | 55.59947 | 5.45814 | 36128 ft | 426 kts | 211° |
| 2026-05-07 14:20 | 55.54894 | 5.40326 | 36120 ft | 426 kts | 211° |
| 2026-05-07 14:20 | 55.49844 | 5.34857 | 36129 ft | 426 kts | 211° |
| 2026-05-07 14:21 | 55.44819 | 5.29431 | 36129 ft | 426 kts | 211° |
| 2026-05-07 14:21 | 55.39763 | 5.23989 | 36122 ft | 426 kts | 211° |
| 2026-05-07 14:22 | 55.34694 | 5.18549 | 36128 ft | 427 kts | 211° |
| 2026-05-07 14:22 | 55.29601 | 5.13101 | 36121 ft | 427 kts | 211° |
| 2026-05-07 14:23 | 55.24543 | 5.07706 | 36128 ft | 427 kts | 211° |
| 2026-05-07 14:23 | 55.19460 | 5.02300 | 36127 ft | 427 kts | 211° |
| 2026-05-07 14:24 | 55.14366 | 4.96899 | 36126 ft | 428 kts | 210° |
| 2026-05-07 14:24 | 55.09256 | 4.91498 | 36126 ft | 429 kts | 210° |
| 2026-05-07 14:25 | 55.04138 | 4.86105 | 36123 ft | 430 kts | 210° |
| 2026-05-07 14:25 | 54.99052 | 4.80762 | 36121 ft | 429 kts | 210° |
| 2026-05-07 14:26 | 54.93931 | 4.75397 | 36123 ft | 430 kts | 210° |
| 2026-05-07 14:26 | 54.88801 | 4.70040 | 36122 ft | 430 kts | 210° |
| 2026-05-07 14:27 | 54.83670 | 4.64697 | 36125 ft | 430 kts | 210° |
| 2026-05-07 14:27 | 54.78519 | 4.59349 | 36130 ft | 431 kts | 210° |
| 2026-05-07 14:28 | 54.73371 | 4.54022 | 36123 ft | 430 kts | 210° |
| 2026-05-07 14:28 | 54.68225 | 4.48711 | 36125 ft | 430 kts | 210° |
| 2026-05-07 14:29 | 54.63075 | 4.43413 | 36119 ft | 431 kts | 209° |
| 2026-05-07 14:29 | 54.57910 | 4.38237 | 36120 ft | 431 kts | 207° |
| 2026-05-07 14:30 | 54.52607 | 4.33378 | 36121 ft | 432 kts | 206° |
| 2026-05-07 14:30 | 54.47273 | 4.28608 | 36121 ft | 432 kts | 206° |
| 2026-05-07 14:31 | 54.41959 | 4.23838 | 36124 ft | 431 kts | 206° |
| 2026-05-07 14:31 | 54.36642 | 4.19046 | 36121 ft | 432 kts | 206° |
| 2026-05-07 14:32 | 54.31319 | 4.14253 | 36122 ft | 432 kts | 206° |
| 2026-05-07 14:32 | 54.25984 | 4.09463 | 36122 ft | 432 kts | 206° |
| 2026-05-07 14:33 | 54.20682 | 4.04718 | 36119 ft | 432 kts | 206° |
| 2026-05-07 14:33 | 54.15346 | 3.99957 | 36117 ft | 433 kts | 206° |
| 2026-05-07 14:34 | 54.09993 | 3.95196 | 36116 ft | 434 kts | 206° |
| 2026-05-07 14:34 | 54.04636 | 3.90444 | 36117 ft | 434 kts | 206° |
| 2026-05-07 14:35 | 53.99308 | 3.85732 | 36115 ft | 434 kts | 205° |
| 2026-05-07 14:35 | 53.93947 | 3.81004 | 36120 ft | 434 kts | 206° |
| 2026-05-07 14:36 | 53.88580 | 3.76285 | 36126 ft | 434 kts | 205° |
| 2026-05-07 14:36 | 53.83229 | 3.71595 | 36122 ft | 434 kts | 205° |
| 2026-05-07 14:37 | 53.77857 | 3.66899 | 36129 ft | 434 kts | 205° |
| 2026-05-07 14:37 | 53.69793 | 3.59876 | 36128 ft | 433 kts | 205° |
| 2026-05-07 14:38 | 53.64460 | 3.55247 | 36130 ft | 433 kts | 205° |
| 2026-05-07 14:38 | 53.59092 | 3.50601 | 36134 ft | 434 kts | 205° |
| 2026-05-07 14:39 | 53.53718 | 3.45965 | 36134 ft | 434 kts | 205° |
| 2026-05-07 14:39 | 53.48343 | 3.41340 | 36138 ft | 434 kts | 205° |
| 2026-05-07 14:40 | 53.42969 | 3.36730 | 36133 ft | 434 kts | 205° |
| 2026-05-07 14:40 | 53.37592 | 3.32130 | 36132 ft | 434 kts | 205° |
| 2026-05-07 14:41 | 53.32214 | 3.27543 | 36115 ft | 434 kts | 205° |
| 2026-05-07 14:41 | 53.26872 | 3.22999 | 36104 ft | 434 kts | 205° |
| 2026-05-07 14:42 | 53.21493 | 3.18436 | 36109 ft | 434 kts | 205° |
| 2026-05-07 14:42 | 53.16110 | 3.13884 | 36102 ft | 433 kts | 205° |
| 2026-05-07 14:43 | 53.11635 | 3.10107 | 36099 ft | 433 kts | 205° |
| 2026-05-07 14:43 | 53.06251 | 3.05578 | 36101 ft | 433 kts | 205° |
| 2026-05-07 14:44 | 53.00870 | 3.01063 | 36109 ft | 433 kts | 205° |
| 2026-05-07 14:44 | 52.95494 | 2.96566 | 36112 ft | 433 kts | 205° |
| 2026-05-07 14:45 | 52.90118 | 2.92081 | 36109 ft | 432 kts | 205° |
| 2026-05-07 14:45 | 52.84751 | 2.87615 | 36109 ft | 432 kts | 205° |
| 2026-05-07 14:46 | 52.79377 | 2.83156 | 36106 ft | 431 kts | 205° |
| 2026-05-07 14:46 | 52.74007 | 2.78694 | 36108 ft | 432 kts | 205° |
| 2026-05-07 14:47 | 52.71337 | 2.76467 | 35933 ft | 426 kts | 205° |
| 2026-05-07 14:47 | 52.68687 | 2.74268 | 35321 ft | 428 kts | 205° |
| 2026-05-07 14:47 | 52.66049 | 2.72089 | 34670 ft | 431 kts | 204° |
| 2026-05-07 14:47 | 52.63362 | 2.69876 | 34031 ft | 433 kts | 204° |
| 2026-05-07 14:48 | 52.60658 | 2.67656 | 33294 ft | 435 kts | 204° |
| 2026-05-07 14:48 | 52.57943 | 2.65431 | 32628 ft | 435 kts | 204° |
| 2026-05-07 14:48 | 52.55231 | 2.63211 | 31963 ft | 436 kts | 204° |
| 2026-05-07 14:48 | 52.52504 | 2.60983 | 31291 ft | 437 kts | 204° |
| 2026-05-07 14:49 | 52.49777 | 2.58759 | 30631 ft | 438 kts | 204° |
| 2026-05-07 14:49 | 52.47054 | 2.56540 | 30185 ft | 434 kts | 204° |
| 2026-05-07 14:49 | 52.44376 | 2.54358 | 29862 ft | 425 kts | 204° |
| 2026-05-07 14:49 | 52.41761 | 2.52229 | 29715 ft | 414 kts | 204° |
| 2026-05-07 14:50 | 52.39189 | 2.50138 | 29580 ft | 413 kts | 204° |
| 2026-05-07 14:50 | 52.36642 | 2.48073 | 29419 ft | 412 kts | 204° |
| 2026-05-07 14:50 | 52.34074 | 2.45993 | 29272 ft | 411 kts | 204° |
| 2026-05-07 14:50 | 52.31512 | 2.43921 | 29114 ft | 410 kts | 204° |
| 2026-05-07 14:51 | 52.28954 | 2.41854 | 28953 ft | 409 kts | 204° |
| 2026-05-07 14:51 | 52.26407 | 2.39798 | 28808 ft | 408 kts | 204° |
| 2026-05-07 14:51 | 52.23868 | 2.37753 | 28649 ft | 404 kts | 205° |
| 2026-05-07 14:51 | 52.21357 | 2.35733 | 28500 ft | 400 kts | 205° |
| 2026-05-07 14:52 | 52.18871 | 2.33734 | 28351 ft | 398 kts | 205° |
| 2026-05-07 14:52 | 52.16383 | 2.31737 | 28183 ft | 397 kts | 205° |
| 2026-05-07 14:52 | 52.13938 | 2.29776 | 28058 ft | 397 kts | 205° |
| 2026-05-07 14:52 | 52.11515 | 2.27635 | 27898 ft | 396 kts | 212° |
| 2026-05-07 14:53 | 52.09378 | 2.24818 | 27761 ft | 395 kts | 224° |
| 2026-05-07 14:53 | 52.07510 | 2.21549 | 27620 ft | 394 kts | 227° |
| 2026-05-07 14:53 | 52.05708 | 2.18197 | 27464 ft | 393 kts | 227° |
| 2026-05-07 14:53 | 52.03919 | 2.14848 | 27315 ft | 391 kts | 227° |
| 2026-05-07 14:54 | 52.02137 | 2.11526 | 27170 ft | 390 kts | 228° |
| 2026-05-07 14:54 | 52.00353 | 2.08212 | 27026 ft | 388 kts | 228° |
| 2026-05-07 14:54 | 51.98581 | 2.04931 | 26884 ft | 387 kts | 228° |
| 2026-05-07 14:54 | 51.96805 | 2.01651 | 26737 ft | 386 kts | 228° |
| 2026-05-07 14:55 | 51.95035 | 1.98388 | 26595 ft | 385 kts | 228° |
| 2026-05-07 14:55 | 51.93265 | 1.95131 | 26456 ft | 384 kts | 228° |
| 2026-05-07 14:55 | 51.91498 | 1.91883 | 26300 ft | 383 kts | 227° |
| 2026-05-07 14:55 | 51.89738 | 1.88654 | 26173 ft | 383 kts | 227° |
| 2026-05-07 14:56 | 51.87977 | 1.85428 | 26019 ft | 382 kts | 227° |
| 2026-05-07 14:56 | 51.86220 | 1.82210 | 25873 ft | 381 kts | 227° |
| 2026-05-07 14:56 | 51.84487 | 1.79044 | 25745 ft | 380 kts | 227° |
| 2026-05-07 14:56 | 51.82736 | 1.75847 | 25593 ft | 379 kts | 227° |
| 2026-05-07 14:57 | 51.80989 | 1.72661 | 25443 ft | 378 kts | 227° |
| 2026-05-07 14:57 | 51.79246 | 1.69489 | 25301 ft | 377 kts | 228° |
| 2026-05-07 14:57 | 51.77508 | 1.66329 | 25161 ft | 375 kts | 228° |
| 2026-05-07 14:57 | 51.75871 | 1.63061 | 24992 ft | 374 kts | 236° |
| 2026-05-07 14:58 | 51.74739 | 1.59281 | 24355 ft | 377 kts | 253° |
| 2026-05-07 14:58 | 51.74260 | 1.55120 | 23798 ft | 378 kts | 261° |
| 2026-05-07 14:58 | 51.73983 | 1.50904 | 23192 ft | 378 kts | 263° |
| 2026-05-07 14:58 | 51.73733 | 1.46691 | 22643 ft | 376 kts | 263° |
| 2026-05-07 14:59 | 51.73479 | 1.42510 | 22118 ft | 373 kts | 262° |
| 2026-05-07 14:59 | 51.73220 | 1.38350 | 21590 ft | 371 kts | 262° |
| 2026-05-07 14:59 | 51.72955 | 1.34210 | 21060 ft | 369 kts | 262° |
| 2026-05-07 14:59 | 51.72690 | 1.30115 | 20537 ft | 366 kts | 262° |
| 2026-05-07 15:00 | 51.72422 | 1.26036 | 20024 ft | 364 kts | 262° |
| 2026-05-07 15:00 | 51.72157 | 1.22026 | 19510 ft | 362 kts | 262° |
| 2026-05-07 15:00 | 51.71888 | 1.17997 | 19003 ft | 361 kts | 262° |
| 2026-05-07 15:00 | 51.71620 | 1.13989 | 18488 ft | 359 kts | 262° |
| 2026-05-07 15:01 | 51.71350 | 1.09993 | 17936 ft | 357 kts | 262° |
| 2026-05-07 15:01 | 51.71081 | 1.06018 | 17416 ft | 354 kts | 262° |
| 2026-05-07 15:01 | 51.70813 | 1.02087 | 16919 ft | 351 kts | 262° |
| 2026-05-07 15:01 | 51.70547 | 0.98194 | 16430 ft | 348 kts | 262° |
| 2026-05-07 15:02 | 51.70284 | 0.94355 | 16108 ft | 340 kts | 262° |
| 2026-05-07 15:02 | 51.70022 | 0.90575 | 15585 ft | 339 kts | 262° |
| 2026-05-07 15:02 | 51.69761 | 0.86818 | 15118 ft | 337 kts | 261° |
| 2026-05-07 15:02 | 51.69500 | 0.83084 | 14698 ft | 333 kts | 261° |
| 2026-05-07 15:03 | 51.69241 | 0.79388 | 14280 ft | 330 kts | 261° |
| 2026-05-07 15:03 | 51.68983 | 0.75735 | 13865 ft | 327 kts | 261° |
| 2026-05-07 15:03 | 51.68726 | 0.72104 | 13419 ft | 325 kts | 261° |
| 2026-05-07 15:03 | 51.68470 | 0.68504 | 13006 ft | 323 kts | 261° |
| 2026-05-07 15:04 | 51.68214 | 0.64913 | 12613 ft | 321 kts | 261° |
| 2026-05-07 15:04 | 51.67959 | 0.61358 | 12214 ft | 319 kts | 261° |
| 2026-05-07 15:04 | 51.67705 | 0.57825 | 11809 ft | 316 kts | 261° |
| 2026-05-07 15:04 | 51.67450 | 0.54314 | 11415 ft | 314 kts | 260° |
| 2026-05-07 15:05 | 51.67201 | 0.50882 | 11129 ft | 308 kts | 261° |
| 2026-05-07 15:05 | 51.66956 | 0.47502 | 10855 ft | 301 kts | 261° |
| 2026-05-07 15:05 | 51.66716 | 0.44200 | 10618 ft | 293 kts | 261° |
| 2026-05-07 15:05 | 51.66479 | 0.40961 | 10231 ft | 291 kts | 261° |
| 2026-05-07 15:06 | 51.66241 | 0.37733 | 9843 ft | 289 kts | 261° |
| 2026-05-07 15:06 | 51.66003 | 0.34518 | 9395 ft | 287 kts | 261° |
| 2026-05-07 15:06 | 51.65765 | 0.31323 | 8968 ft | 285 kts | 261° |
| 2026-05-07 15:06 | 51.65529 | 0.28159 | 8547 ft | 283 kts | 261° |
| 2026-05-07 15:07 | 51.65293 | 0.25012 | 8116 ft | 282 kts | 261° |
| 2026-05-07 15:07 | 51.65069 | 0.21931 | 7792 ft | 277 kts | 262° |
| 2026-05-07 15:07 | 51.64887 | 0.18869 | 7486 ft | 272 kts | 263° |
| 2026-05-07 15:07 | 51.64718 | 0.15858 | 7187 ft | 267 kts | 262° |
| 2026-05-07 15:08 | 51.64558 | 0.12933 | 7067 ft | 256 kts | 263° |
| 2026-05-07 15:08 | 51.64405 | 0.10160 | 7059 ft | 242 kts | 262° |
| 2026-05-07 15:08 | 51.64256 | 0.07490 | 7066 ft | 239 kts | 263° |
| 2026-05-07 15:08 | 51.64110 | 0.04820 | 7070 ft | 239 kts | 263° |
| 2026-05-07 15:09 | 51.63962 | 0.02179 | 7072 ft | 240 kts | 263° |
| 2026-05-07 15:09 | 51.63805 | -0.00492 | 7070 ft | 240 kts | 262° |
| 2026-05-07 15:09 | 51.63642 | -0.03170 | 7065 ft | 239 kts | 262° |
| 2026-05-07 15:09 | 51.63483 | -0.05830 | 7063 ft | 239 kts | 262° |
| 2026-05-07 15:10 | 51.63326 | -0.08489 | 7065 ft | 238 kts | 262° |
| 2026-05-07 15:10 | 51.63170 | -0.11142 | 7066 ft | 238 kts | 262° |
| 2026-05-07 15:10 | 51.63013 | -0.13792 | 7073 ft | 238 kts | 262° |
| 2026-05-07 15:10 | 51.62856 | -0.16450 | 7073 ft | 238 kts | 262° |
| 2026-05-07 15:11 | 51.62696 | -0.19138 | 7077 ft | 238 kts | 262° |
| 2026-05-07 15:11 | 51.62540 | -0.21763 | 7077 ft | 238 kts | 262° |
| 2026-05-07 15:11 | 51.62381 | -0.24421 | 7078 ft | 238 kts | 262° |
| 2026-05-07 15:11 | 51.62223 | -0.27072 | 7078 ft | 238 kts | 262° |
| 2026-05-07 15:12 | 51.62062 | -0.29733 | 7073 ft | 238 kts | 262° |
| 2026-05-07 15:12 | 51.61903 | -0.32388 | 7050 ft | 238 kts | 262° |
| 2026-05-07 15:12 | 51.61744 | -0.35055 | 7045 ft | 239 kts | 262° |
| 2026-05-07 15:12 | 51.61585 | -0.37710 | 7041 ft | 238 kts | 262° |
| 2026-05-07 15:13 | 51.61425 | -0.40367 | 7046 ft | 239 kts | 262° |
| 2026-05-07 15:13 | 51.61267 | -0.43019 | 7044 ft | 238 kts | 262° |
| 2026-05-07 15:13 | 51.61107 | -0.45675 | 7047 ft | 238 kts | 262° |
| 2026-05-07 15:13 | 51.60947 | -0.48330 | 7050 ft | 239 kts | 262° |
| 2026-05-07 15:14 | 51.60785 | -0.50988 | 6943 ft | 239 kts | 262° |
| 2026-05-07 15:14 | 51.60623 | -0.53642 | 6637 ft | 237 kts | 262° |
| 2026-05-07 15:14 | 51.60460 | -0.56278 | 6345 ft | 236 kts | 262° |
| 2026-05-07 15:14 | 51.60297 | -0.58868 | 6071 ft | 234 kts | 262° |
| 2026-05-07 15:15 | 51.60132 | -0.61461 | 5991 ft | 232 kts | 262° |
| 2026-05-07 15:15 | 51.59966 | -0.64054 | 5911 ft | 234 kts | 262° |
| 2026-05-07 15:15 | 51.59800 | -0.66662 | 5585 ft | 233 kts | 262° |
| 2026-05-07 15:15 | 51.59635 | -0.69245 | 5297 ft | 231 kts | 262° |
| 2026-05-07 15:16 | 51.59471 | -0.71808 | 5044 ft | 229 kts | 262° |
| 2026-05-07 15:16 | 51.59310 | -0.74343 | 4992 ft | 228 kts | 262° |
| 2026-05-07 15:16 | 51.59148 | -0.76887 | 4988 ft | 229 kts | 262° |
| 2026-05-07 15:16 | 51.58858 | -0.79388 | 4944 ft | 227 kts | 245° |
| 2026-05-07 15:17 | 51.57898 | -0.81337 | 4494 ft | 224 kts | 213° |
| 2026-05-07 15:17 | 51.56425 | -0.82138 | 3887 ft | 227 kts | 185° |
| 2026-05-07 15:17 | 51.54837 | -0.82178 | 3345 ft | 227 kts | 178° |
| 2026-05-07 15:17 | 51.53292 | -0.82081 | 3036 ft | 224 kts | 177° |
| 2026-05-07 15:18 | 51.51727 | -0.81960 | 2976 ft | 217 kts | 177° |
| 2026-05-07 15:18 | 51.50284 | -0.81834 | 2974 ft | 206 kts | 173° |
| 2026-05-07 15:18 | 51.48925 | -0.81190 | 2984 ft | 205 kts | 153° |
| 2026-05-07 15:18 | 51.47892 | -0.79655 | 2991 ft | 205 kts | 121° |
| 2026-05-07 15:19 | 51.47528 | -0.77447 | 2998 ft | 208 kts | 92° |
| 2026-05-07 15:19 | 51.47556 | -0.75163 | 3010 ft | 194 kts | 88° |
| 2026-05-07 15:19 | 51.47588 | -0.73128 | 2973 ft | 173 kts | 89° |
| 2026-05-07 15:19 | 51.47601 | -0.71221 | 2926 ft | 170 kts | 90° |
| 2026-05-07 15:20 | 51.47600 | -0.69328 | 2711 ft | 170 kts | 90° |
| 2026-05-07 15:20 | 51.47609 | -0.67440 | 2461 ft | 169 kts | 90° |
| 2026-05-07 15:20 | 51.47624 | -0.65580 | 2245 ft | 168 kts | 90° |
| 2026-05-07 15:20 | 51.47636 | -0.63695 | 1997 ft | 166 kts | 90° |
| 2026-05-07 15:21 | 51.47648 | -0.61884 | 1794 ft | 160 kts | 89° |
| 2026-05-07 15:21 | 51.47659 | -0.60153 | 1548 ft | 149 kts | 90° |
| 2026-05-07 15:21 | 51.47668 | -0.58559 | 1349 ft | 138 kts | 89° |
| 2026-05-07 15:21 | 51.47678 | -0.57040 | 1176 ft | 135 kts | 90° |
| 2026-05-07 15:22 | 51.47687 | -0.55540 | 986 ft | 134 kts | 89° |
| 2026-05-07 15:22 | 51.47697 | -0.54059 | 808 ft | 132 kts | 89° |
| 2026-05-07 15:22 | 51.47706 | -0.52599 | 629 ft | 129 kts | 88° |
| 2026-05-07 15:22 | 51.47736 | -0.51183 | 436 ft | 125 kts | 86° |
| 2026-05-07 15:23 | 51.47756 | -0.49796 | 278 ft | 124 kts | 88° |
| 2026-05-07 15:23 | 51.47759 | -0.48409 | 132 ft | 126 kts | 88° |
| 2026-05-07 15:23 | 51.47759 | -0.47107 | 93 ft | 98 kts | 89° |
| 2026-05-07 15:23 | 51.47759 | -0.46303 | 93 ft | 46 kts | 89° |
| 2026-05-07 15:24 | 51.47674 | -0.46113 | 89 ft | 11 kts | 144° |
| 2026-05-07 15:24 | 51.47627 | -0.46074 | 93 ft | 7 kts | 180° |
| 2026-05-07 15:24 | 51.47594 | -0.46146 | 92 ft | 12 kts | 268° |
| 2026-05-07 15:24 | 51.47594 | -0.46318 | 91 ft | 17 kts | 268° |
| 2026-05-07 15:25 | 51.47593 | -0.46524 | 91 ft | 20 kts | 270° |
| 2026-05-07 15:25 | 51.47592 | -0.46752 | 89 ft | 21 kts | 269° |
| 2026-05-07 15:25 | 51.47585 | -0.46979 | 92 ft | 20 kts | 269° |
| 2026-05-07 15:25 | 51.47582 | -0.47201 | 90 ft | 20 kts | 269° |
| 2026-05-07 15:26 | 51.47578 | -0.47424 | 90 ft | 20 kts | 268° |
| 2026-05-07 15:26 | 51.47577 | -0.47571 | 90 ft | 20 kts | 273° |
| 2026-05-07 15:26 | 51.47580 | -0.47790 | 92 ft | 20 kts | 270° |
| 2026-05-07 15:26 | 51.47579 | -0.48007 | 90 ft | 19 kts | 269° |
| 2026-05-07 15:27 | 51.47577 | -0.48222 | 91 ft | 19 kts | 269° |
| 2026-05-07 15:27 | 51.47572 | -0.48434 | 89 ft | 18 kts | 252° |
| 2026-05-07 15:27 | 51.47464 | -0.48474 | 89 ft | 17 kts | 178° |
| 2026-05-07 15:27 | 51.47332 | -0.48474 | 89 ft | 21 kts | 179° |
| 2026-05-07 15:28 | 51.47177 | -0.48473 | 91 ft | 23 kts | 180° |
| 2026-05-07 15:28 | 51.47020 | -0.48471 | 90 ft | 23 kts | 179° |
| 2026-05-07 15:28 | 51.46893 | -0.48477 | 92 ft | 13 kts | 205° |
| 2026-05-07 15:28 | 51.46877 | -0.48540 | 89 ft | 4 kts | 277° |
| 2026-05-07 15:29 | 51.46907 | -0.48576 | 89 ft | 6 kts | 357° |
| 2026-05-07 15:29 | 51.46930 | -0.48574 | 89 ft | 0 kts | 2° |